sensor_id;sensor_type;location;lat;lon;timestamp;pressure;altitude;pressure_sealevel;temperature;humidity
7940;BME280;4015;48.888;9.226;2023-01-01T00:02:08;158532.69;;;13.09;79.33
7940;BME280;4015;48.888;9.226;2023-01-01T00:04:34;158491.72;;;12.93;80.10
7940;BME280;4015;48.888;9.226;2023-01-01T00:07:00;158449.53;;;12.76;80.73
7940;BME280;4015;48.888;9.226;2023-01-01T00:09:25;158441.84;;;12.73;81.09
7940;BME280;4015;48.888;9.226;2023-01-01T00:12:09;158399.63;;;12.56;81.84
7940;BME280;4015;48.888;9.226;2023-01-01T00:14:35;158414.97;;;12.62;81.74
7940;BME280;4015;48.888;9.226;2023-01-01T00:17:01;158423.94;;;12.66;81.19
7940;BME280;4015;48.888;9.226;2023-01-01T00:19:26;158454.66;;;12.78;80.62
7940;BME280;4015;48.888;9.226;2023-01-01T00:21:52;158487.91;;;12.91;80.02
7940;BME280;4015;48.888;9.226;2023-01-01T00:24:18;158508.34;;;13.00;79.12
7940;BME280;4015;48.888;9.226;2023-01-01T00:26:43;158541.63;;;13.13;78.91
7940;BME280;4015;48.888;9.226;2023-01-01T00:29:08;158539.06;;;13.12;79.00
7940;BME280;4015;48.888;9.226;2023-01-01T00:31:34;158550.59;;;13.16;78.84
7940;BME280;4015;48.888;9.226;2023-01-01T00:33:59;158555.69;;;13.18;78.49
7940;BME280;4015;48.888;9.226;2023-01-01T00:36:26;158574.91;;;13.26;77.96
7940;BME280;4015;48.888;9.226;2023-01-01T00:38:52;158594.16;;;13.34;78.22
7940;BME280;4015;48.888;9.226;2023-01-01T00:41:17;158604.34;;;13.38;77.70
7940;BME280;4015;48.888;9.226;2023-01-01T00:43:43;158618.44;;;13.43;77.42
7940;BME280;4015;48.888;9.226;2023-01-01T00:46:09;158622.25;;;13.45;76.97
7940;BME280;4015;48.888;9.226;2023-01-01T00:48:35;158642.78;;;13.53;76.80
7940;BME280;4015;48.888;9.226;2023-01-01T00:51:01;158640.22;;;13.52;76.82
7940;BME280;4015;48.888;9.226;2023-01-01T00:53:27;158645.31;;;13.54;76.70
7940;BME280;4015;48.888;9.226;2023-01-01T00:55:53;158632.53;;;13.49;76.74
7940;BME280;4015;48.888;9.226;2023-01-01T00:58:21;158651.72;;;13.57;76.64
7940;BME280;4015;48.888;9.226;2023-01-01T01:00:46;158615.88;;;13.42;77.36
7940;BME280;4015;48.888;9.226;2023-01-01T01:03:13;158628.69;;;13.47;77.13
7940;BME280;4015;48.888;9.226;2023-01-01T01:08:28;158623.59;;;13.45;77.06
7940;BME280;4015;48.888;9.226;2023-01-01T01:10:54;158595.44;;;13.34;77.23
7940;BME280;4015;48.888;9.226;2023-01-01T01:13:20;158595.44;;;13.34;77.28
7940;BME280;4015;48.888;9.226;2023-01-01T01:15:46;158624.88;;;13.46;77.06
7940;BME280;4015;48.888;9.226;2023-01-01T01:18:12;158609.50;;;13.40;77.20
7940;BME280;4015;48.888;9.226;2023-01-01T01:20:37;158604.34;;;13.38;76.87
7940;BME280;4015;48.888;9.226;2023-01-01T01:23:03;158603.09;;;13.37;77.14
7940;BME280;4015;48.888;9.226;2023-01-01T01:25:28;158592.88;;;13.33;77.30
7940;BME280;4015;48.888;9.226;2023-01-01T01:27:54;158559.56;;;13.20;77.67
7940;BME280;4015;48.888;9.226;2023-01-01T01:30:19;158576.25;;;13.27;77.13
7940;BME280;4015;48.888;9.226;2023-01-01T01:32:44;158546.75;;;13.15;77.80
7940;BME280;4015;48.888;9.226;2023-01-01T01:35:10;158578.78;;;13.28;76.99
7940;BME280;4015;48.888;9.226;2023-01-01T01:37:35;158580.06;;;13.28;76.88
7940;BME280;4015;48.888;9.226;2023-01-01T01:40:00;158550.59;;;13.16;77.56
7940;BME280;4015;48.888;9.226;2023-01-01T01:42:26;158546.75;;;13.15;77.45
7940;BME280;4015;48.888;9.226;2023-01-01T01:44:56;158536.50;;;13.11;77.38
7940;BME280;4015;48.888;9.226;2023-01-01T01:47:52;158541.63;;;13.13;77.67
7940;BME280;4015;48.888;9.226;2023-01-01T01:53:09;158550.59;;;13.16;77.38
7940;BME280;4015;48.888;9.226;2023-01-01T01:55:39;158560.88;;;13.20;77.36
7940;BME280;4015;48.888;9.226;2023-01-01T01:58:09;158553.13;;;13.17;77.76
7940;BME280;4015;48.888;9.226;2023-01-01T02:00:35;158585.19;;;13.30;76.63
7940;BME280;4015;48.888;9.226;2023-01-01T02:03:32;158568.53;;;13.23;77.20
7940;BME280;4015;48.888;9.226;2023-01-01T02:06:01;158573.66;;;13.26;77.04
7940;BME280;4015;48.888;9.226;2023-01-01T02:08:27;158562.16;;;13.21;77.29
7940;BME280;4015;48.888;9.226;2023-01-01T02:10:53;158577.53;;;13.27;77.01
7940;BME280;4015;48.888;9.226;2023-01-01T02:13:18;158563.44;;;13.21;77.38
7940;BME280;4015;48.888;9.226;2023-01-01T02:15:51;158553.13;;;13.17;77.40
7940;BME280;4015;48.888;9.226;2023-01-01T02:18:22;158572.38;;;13.25;77.24
7940;BME280;4015;48.888;9.226;2023-01-01T02:26:25;158524.97;;;13.06;77.97
7940;BME280;4015;48.888;9.226;2023-01-01T02:29:54;158551.88;;;13.17;77.05
7940;BME280;4015;48.888;9.226;2023-01-01T02:32:00;158571.09;;;13.25;76.88
7940;BME280;4015;48.888;9.226;2023-01-01T02:34:31;158461.03;;;12.81;78.69
7940;BME280;4015;48.888;9.226;2023-01-01T02:36:59;158418.84;;;12.64;79.20
7940;BME280;4015;48.888;9.226;2023-01-01T02:39:30;158422.66;;;12.65;79.61
7940;BME280;4015;48.888;9.226;2023-01-01T02:41:57;158427.78;;;12.67;79.03
7940;BME280;4015;48.888;9.226;2023-01-01T02:44:25;158455.91;;;12.79;78.57
7940;BME280;4015;48.888;9.226;2023-01-01T02:46:53;158459.75;;;12.80;78.20
7940;BME280;4015;48.888;9.226;2023-01-01T02:49:18;158484.06;;;12.90;77.90
7940;BME280;4015;48.888;9.226;2023-01-01T02:52:04;158508.34;;;13.00;77.39
7940;BME280;4015;48.888;9.226;2023-01-01T02:57:07;158482.78;;;12.89;77.61
7940;BME280;4015;48.888;9.226;2023-01-01T03:05:57;158490.44;;;12.92;77.59
7940;BME280;4015;48.888;9.226;2023-01-01T03:11:39;158521.16;;;13.05;76.91
7940;BME280;4015;48.888;9.226;2023-01-01T03:19:39;158522.44;;;13.05;77.01
7940;BME280;4015;48.888;9.226;2023-01-01T03:22:09;158501.97;;;12.97;77.44
7940;BME280;4015;48.888;9.226;2023-01-01T03:25:01;158509.63;;;13.00;76.97
7940;BME280;4015;48.888;9.226;2023-01-01T03:27:43;158527.53;;;13.07;76.54
7940;BME280;4015;48.888;9.226;2023-01-01T03:30:11;158514.78;;;13.02;76.60
7940;BME280;4015;48.888;9.226;2023-01-01T03:32:59;158490.44;;;12.92;76.65
7940;BME280;4015;48.888;9.226;2023-01-01T03:35:42;158482.78;;;12.89;76.94
7940;BME280;4015;48.888;9.226;2023-01-01T03:38:17;158487.91;;;12.91;76.80
7940;BME280;4015;48.888;9.226;2023-01-01T03:40:44;158480.19;;;12.88;76.87
7940;BME280;4015;48.888;9.226;2023-01-01T03:43:16;158462.28;;;12.81;77.07
7940;BME280;4015;48.888;9.226;2023-01-01T03:45:45;158457.19;;;12.79;77.17
7940;BME280;4015;48.888;9.226;2023-01-01T03:48:12;158430.31;;;12.68;77.07
7940;BME280;4015;48.888;9.226;2023-01-01T03:50:53;158448.22;;;12.76;76.78
7940;BME280;4015;48.888;9.226;2023-01-01T03:53:40;158463.56;;;12.82;76.75
7940;BME280;4015;48.888;9.226;2023-01-01T03:56:13;158493.00;;;12.93;75.94
7940;BME280;4015;48.888;9.226;2023-01-01T03:58:48;158510.91;;;13.01;75.42
7940;BME280;4015;48.888;9.226;2023-01-01T04:01:22;158514.78;;;13.02;75.42
7940;BME280;4015;48.888;9.226;2023-01-01T04:03:50;158524.97;;;13.06;74.98
7940;BME280;4015;48.888;9.226;2023-01-01T04:06:16;158535.25;;;13.10;75.01
7940;BME280;4015;48.888;9.226;2023-01-01T04:08:42;158562.16;;;13.21;74.40
7940;BME280;4015;48.888;9.226;2023-01-01T04:11:16;158553.13;;;13.17;74.52
7940;BME280;4015;48.888;9.226;2023-01-01T04:14:02;158513.50;;;13.02;75.14
7940;BME280;4015;48.888;9.226;2023-01-01T04:16:27;158509.63;;;13.00;75.44
7940;BME280;4015;48.888;9.226;2023-01-01T04:18:52;158486.63;;;12.91;76.02
7940;BME280;4015;48.888;9.226;2023-01-01T04:21:18;158493.00;;;12.93;76.07
7940;BME280;4015;48.888;9.226;2023-01-01T04:23:43;158510.91;;;13.01;75.95
7940;BME280;4015;48.888;9.226;2023-01-01T04:26:13;158522.44;;;13.05;75.65
7940;BME280;4015;48.888;9.226;2023-01-01T04:28:39;158535.25;;;13.10;75.85
7940;BME280;4015;48.888;9.226;2023-01-01T04:31:05;158554.41;;;13.18;75.17
7940;BME280;4015;48.888;9.226;2023-01-01T04:33:31;158562.16;;;13.21;75.37
7940;BME280;4015;48.888;9.226;2023-01-01T04:36:02;158578.78;;;13.28;75.02
7940;BME280;4015;48.888;9.226;2023-01-01T04:38:27;158567.28;;;13.23;75.38
7940;BME280;4015;48.888;9.226;2023-01-01T04:40:57;158542.88;;;13.13;75.94
7940;BME280;4015;48.888;9.226;2023-01-01T04:43:22;158549.31;;;13.16;75.62
7940;BME280;4015;48.888;9.226;2023-01-01T04:46:02;158545.50;;;13.14;75.45
7940;BME280;4015;48.888;9.226;2023-01-01T04:48:29;158553.13;;;13.17;75.13
7940;BME280;4015;48.888;9.226;2023-01-01T04:51:00;158537.78;;;13.11;75.66
7940;BME280;4015;48.888;9.226;2023-01-01T04:53:28;158548.03;;;13.15;75.56
7940;BME280;4015;48.888;9.226;2023-01-01T04:55:53;158539.06;;;13.12;75.69
7940;BME280;4015;48.888;9.226;2023-01-01T04:58:19;158542.88;;;13.13;75.31
7940;BME280;4015;48.888;9.226;2023-01-01T05:00:50;158542.88;;;13.13;75.59
7940;BME280;4015;48.888;9.226;2023-01-01T05:03:17;158544.22;;;13.14;75.21
7940;BME280;4015;48.888;9.226;2023-01-01T05:05:42;158564.72;;;13.22;75.05
7940;BME280;4015;48.888;9.226;2023-01-01T05:08:08;158582.63;;;13.29;74.68
7940;BME280;4015;48.888;9.226;2023-01-01T05:10:33;158596.72;;;13.35;74.35
7940;BME280;4015;48.888;9.226;2023-01-01T05:12:58;158589.00;;;13.32;74.58
7940;BME280;4015;48.888;9.226;2023-01-01T05:15:23;158596.72;;;13.35;74.77
7940;BME280;4015;48.888;9.226;2023-01-01T05:17:49;158617.16;;;13.43;74.08
7940;BME280;4015;48.888;9.226;2023-01-01T05:20:14;158624.88;;;13.46;73.97
7940;BME280;4015;48.888;9.226;2023-01-01T05:22:40;158621.00;;;13.44;74.01
7940;BME280;4015;48.888;9.226;2023-01-01T05:25:05;158629.97;;;13.48;74.01
7940;BME280;4015;48.888;9.226;2023-01-01T05:27:30;158614.63;;;13.42;74.23
7940;BME280;4015;48.888;9.226;2023-01-01T05:29:56;158623.59;;;13.45;74.23
7940;BME280;4015;48.888;9.226;2023-01-01T05:32:21;158609.50;;;13.40;74.42
7940;BME280;4015;48.888;9.226;2023-01-01T05:34:47;158591.59;;;13.33;74.60
7940;BME280;4015;48.888;9.226;2023-01-01T05:37:12;158580.06;;;13.28;74.88
7940;BME280;4015;48.888;9.226;2023-01-01T05:39:37;158594.16;;;13.34;74.68
7940;BME280;4015;48.888;9.226;2023-01-01T05:42:03;158592.88;;;13.33;74.62
7940;BME280;4015;48.888;9.226;2023-01-01T05:44:28;158582.63;;;13.29;74.71
7940;BME280;4015;48.888;9.226;2023-01-01T05:46:53;158599.25;;;13.36;74.56
7940;BME280;4015;48.888;9.226;2023-01-01T05:49:18;158585.19;;;13.30;74.87
7940;BME280;4015;48.888;9.226;2023-01-01T05:51:44;158562.16;;;13.21;75.17
7940;BME280;4015;48.888;9.226;2023-01-01T05:54:09;158556.97;;;13.19;75.19
7940;BME280;4015;48.888;9.226;2023-01-01T05:56:35;158555.69;;;13.18;75.16
7940;BME280;4015;48.888;9.226;2023-01-01T05:59:00;158536.50;;;13.11;75.19
7940;BME280;4015;48.888;9.226;2023-01-01T06:01:28;158516.06;;;13.03;75.79
7940;BME280;4015;48.888;9.226;2023-01-01T06:03:54;158512.22;;;13.01;75.82
7940;BME280;4015;48.888;9.226;2023-01-01T06:06:23;158516.06;;;13.03;75.31
7940;BME280;4015;48.888;9.226;2023-01-01T06:08:53;158510.91;;;13.01;75.95
7940;BME280;4015;48.888;9.226;2023-01-01T06:11:19;158517.31;;;13.03;75.50
7940;BME280;4015;48.888;9.226;2023-01-01T06:13:45;158494.28;;;12.94;75.81
7940;BME280;4015;48.888;9.226;2023-01-01T06:16:11;158521.16;;;13.05;75.64
7940;BME280;4015;48.888;9.226;2023-01-01T06:18:36;158496.88;;;12.95;75.76
7940;BME280;4015;48.888;9.226;2023-01-01T06:21:10;158496.88;;;12.95;75.75
7940;BME280;4015;48.888;9.226;2023-01-01T06:23:36;158454.66;;;12.78;76.47
7940;BME280;4015;48.888;9.226;2023-01-01T06:26:05;158439.28;;;12.72;76.85
7940;BME280;4015;48.888;9.226;2023-01-01T06:28:31;158411.16;;;12.61;76.97
7940;BME280;4015;48.888;9.226;2023-01-01T06:31:01;158417.56;;;12.63;77.16
7940;BME280;4015;48.888;9.226;2023-01-01T06:33:28;158413.69;;;12.62;77.04
7940;BME280;4015;48.888;9.226;2023-01-01T06:35:53;158423.94;;;12.66;77.01
7940;BME280;4015;48.888;9.226;2023-01-01T06:38:19;158413.69;;;12.62;77.18
7940;BME280;4015;48.888;9.226;2023-01-01T06:40:54;158418.84;;;12.64;77.25
7940;BME280;4015;48.888;9.226;2023-01-01T06:43:20;158431.59;;;12.69;77.32
7940;BME280;4015;48.888;9.226;2023-01-01T06:45:45;158439.28;;;12.72;76.81
7940;BME280;4015;48.888;9.226;2023-01-01T06:48:10;158445.66;;;12.75;76.21
7940;BME280;4015;48.888;9.226;2023-01-01T06:50:35;158443.13;;;12.74;76.69
7940;BME280;4015;48.888;9.226;2023-01-01T06:53:01;158441.84;;;12.73;76.56
7940;BME280;4015;48.888;9.226;2023-01-01T06:55:26;158472.53;;;12.85;76.11
7940;BME280;4015;48.888;9.226;2023-01-01T06:57:52;158446.94;;;12.75;76.69
7940;BME280;4015;48.888;9.226;2023-01-01T07:00:17;158427.78;;;12.67;76.74
7940;BME280;4015;48.888;9.226;2023-01-01T07:02:42;158440.56;;;12.73;76.72
7940;BME280;4015;48.888;9.226;2023-01-01T07:05:08;158427.78;;;12.67;76.65
7940;BME280;4015;48.888;9.226;2023-01-01T07:07:33;158432.88;;;12.69;76.64
7940;BME280;4015;48.888;9.226;2023-01-01T07:09:58;158444.41;;;12.74;76.47
7940;BME280;4015;48.888;9.226;2023-01-01T07:12:24;158444.41;;;12.74;76.62
7940;BME280;4015;48.888;9.226;2023-01-01T07:14:49;158443.13;;;12.74;76.37
7940;BME280;4015;48.888;9.226;2023-01-01T07:17:14;158454.66;;;12.78;75.97
7940;BME280;4015;48.888;9.226;2023-01-01T07:19:39;158466.16;;;12.83;76.01
7940;BME280;4015;48.888;9.226;2023-01-01T07:22:05;158434.19;;;12.70;76.53
7940;BME280;4015;48.888;9.226;2023-01-01T07:24:30;158453.38;;;12.78;75.85
7940;BME280;4015;48.888;9.226;2023-01-01T07:26:55;158459.75;;;12.80;76.11
7940;BME280;4015;48.888;9.226;2023-01-01T07:29:21;158417.56;;;12.63;76.65
7940;BME280;4015;48.888;9.226;2023-01-01T07:31:46;158425.22;;;12.66;76.31
7940;BME280;4015;48.888;9.226;2023-01-01T07:34:14;158443.13;;;12.74;76.29
7940;BME280;4015;48.888;9.226;2023-01-01T07:36:40;158440.56;;;12.73;76.07
7940;BME280;4015;48.888;9.226;2023-01-01T07:39:05;158439.28;;;12.72;76.47
7940;BME280;4015;48.888;9.226;2023-01-01T07:41:31;158429.03;;;12.68;76.17
7940;BME280;4015;48.888;9.226;2023-01-01T07:43:56;158470.00;;;12.84;75.35
7940;BME280;4015;48.888;9.226;2023-01-01T07:46:21;158485.34;;;12.90;75.32
7940;BME280;4015;48.888;9.226;2023-01-01T07:48:47;158505.81;;;12.99;74.68
7940;BME280;4015;48.888;9.226;2023-01-01T07:51:12;158491.72;;;12.93;75.13
7940;BME280;4015;48.888;9.226;2023-01-01T07:53:37;158523.72;;;13.06;74.61
7940;BME280;4015;48.888;9.226;2023-01-01T07:56:03;158505.81;;;12.99;75.07
7940;BME280;4015;48.888;9.226;2023-01-01T07:58:28;158563.44;;;13.21;73.98
7940;BME280;4015;48.888;9.226;2023-01-01T08:00:54;158583.91;;;13.30;73.87
7940;BME280;4015;48.888;9.226;2023-01-01T08:03:19;158608.22;;;13.39;73.12
7940;BME280;4015;48.888;9.226;2023-01-01T08:05:44;158606.97;;;13.39;72.93
7940;BME280;4015;48.888;9.226;2023-01-01T08:08:10;158581.34;;;13.29;73.47
7940;BME280;4015;48.888;9.226;2023-01-01T08:10:36;158600.53;;;13.36;73.51
7940;BME280;4015;48.888;9.226;2023-01-01T08:13:03;158618.44;;;13.43;73.36
7940;BME280;4015;48.888;9.226;2023-01-01T08:15:29;158605.63;;;13.38;73.23
7940;BME280;4015;48.888;9.226;2023-01-01T08:17:56;158595.44;;;13.34;73.30
7940;BME280;4015;48.888;9.226;2023-01-01T08:20:21;158617.16;;;13.43;73.17
7940;BME280;4015;48.888;9.226;2023-01-01T08:22:47;158622.25;;;13.45;72.54
7940;BME280;4015;48.888;9.226;2023-01-01T08:25:12;158595.44;;;13.34;73.22
7940;BME280;4015;48.888;9.226;2023-01-01T08:27:37;158558.25;;;13.19;74.91
7940;BME280;4015;48.888;9.226;2023-01-01T08:30:03;158526.25;;;13.07;74.92
7940;BME280;4015;48.888;9.226;2023-01-01T08:32:28;158516.06;;;13.03;75.26
7940;BME280;4015;48.888;9.226;2023-01-01T08:34:54;158490.44;;;12.92;75.81
7940;BME280;4015;48.888;9.226;2023-01-01T08:37:20;158458.47;;;12.80;76.36
7940;BME280;4015;48.888;9.226;2023-01-01T08:39:51;158498.16;;;12.95;75.64
7940;BME280;4015;48.888;9.226;2023-01-01T08:42:16;158527.53;;;13.07;75.30
7940;BME280;4015;48.888;9.226;2023-01-01T08:44:42;158599.25;;;13.36;74.45
7940;BME280;4015;48.888;9.226;2023-01-01T08:47:16;158617.16;;;13.43;74.29
7940;BME280;4015;48.888;9.226;2023-01-01T08:49:42;158664.50;;;13.62;73.26
7940;BME280;4015;48.888;9.226;2023-01-01T08:52:08;158704.22;;;13.77;72.65
7940;BME280;4015;48.888;9.226;2023-01-01T08:54:33;158749.03;;;13.95;72.14
7940;BME280;4015;48.888;9.226;2023-01-01T08:56:58;158797.66;;;14.15;71.42
7940;BME280;4015;48.888;9.226;2023-01-01T08:59:24;158788.69;;;14.11;71.45
7940;BME280;4015;48.888;9.226;2023-01-01T09:01:49;158845.03;;;14.34;70.92
7940;BME280;4015;48.888;9.226;2023-01-01T09:04:14;158874.44;;;14.45;70.00
7940;BME280;4015;48.888;9.226;2023-01-01T09:06:41;158886.03;;;14.50;70.26
7940;BME280;4015;48.888;9.226;2023-01-01T09:09:06;158887.31;;;14.50;70.05
7940;BME280;4015;48.888;9.226;2023-01-01T09:11:31;158882.19;;;14.48;69.67
7940;BME280;4015;48.888;9.226;2023-01-01T09:13:57;158901.41;;;14.56;69.40
7940;BME280;4015;48.888;9.226;2023-01-01T09:16:22;158903.94;;;14.57;70.33
7940;BME280;4015;48.888;9.226;2023-01-01T09:18:47;158903.94;;;14.57;69.75
7940;BME280;4015;48.888;9.226;2023-01-01T09:21:13;158915.50;;;14.62;69.03
7940;BME280;4015;48.888;9.226;2023-01-01T09:23:38;158939.84;;;14.71;68.73
7940;BME280;4015;48.888;9.226;2023-01-01T09:26:06;158965.44;;;14.81;68.85
7940;BME280;4015;48.888;9.226;2023-01-01T09:28:33;159035.91;;;15.09;67.99
7940;BME280;4015;48.888;9.226;2023-01-01T09:30:58;159051.28;;;15.16;67.95
7940;BME280;4015;48.888;9.226;2023-01-01T09:33:23;159125.53;;;15.45;67.37
7940;BME280;4015;48.888;9.226;2023-01-01T09:35:49;159226.84;;;15.85;66.07
7940;BME280;4015;48.888;9.226;2023-01-01T09:38:15;159257.59;;;15.98;66.05
7940;BME280;4015;48.888;9.226;2023-01-01T09:40:56;159383.22;;;16.48;64.89
7940;BME280;4015;48.888;9.226;2023-01-01T09:45:58;159582.00;;;17.26;61.94
7940;BME280;4015;48.888;9.226;2023-01-01T09:48:25;159652.56;;;17.55;61.60
7940;BME280;4015;48.888;9.226;2023-01-01T09:50:52;159747.56;;;17.92;60.33
7940;BME280;4015;48.888;9.226;2023-01-01T09:55:54;159997.84;;;18.92;57.49
7940;BME280;4015;48.888;9.226;2023-01-01T09:58:23;160133.97;;;19.46;57.48
7940;BME280;4015;48.888;9.226;2023-01-01T10:00:53;160306.13;;;20.14;55.54
7940;BME280;4015;48.888;9.226;2023-01-01T10:04:03;160363.94;;;20.37;54.68
7940;BME280;4015;48.888;9.226;2023-01-01T10:06:21;160506.63;;;20.93;53.72
7940;BME280;4015;48.888;9.226;2023-01-01T10:09:15;160417.94;;;20.58;54.68
7940;BME280;4015;48.888;9.226;2023-01-01T10:14:22;160401.25;;;20.52;55.31
7940;BME280;4015;48.888;9.226;2023-01-01T10:16:55;160293.25;;;20.09;nan
7940;BME280;4015;48.888;9.226;2023-01-01T10:22:21;160302.28;;;20.12;56.16
7940;BME280;4015;48.888;9.226;2023-01-01T10:24:48;160109.59;;;19.36;57.31
7940;BME280;4015;48.888;9.226;2023-01-01T10:27:47;160150.66;;;19.52;58.62
7940;BME280;4015;48.888;9.226;2023-01-01T10:30:21;160080.03;;;19.24;58.55
7940;BME280;4015;48.888;9.226;2023-01-01T10:32:52;160103.13;;;19.33;57.07
7940;BME280;4015;48.888;9.226;2023-01-01T10:35:20;160059.47;;;19.16;58.14
7940;BME280;4015;48.888;9.226;2023-01-01T10:37:47;160076.16;;;19.23;58.49
7940;BME280;4015;48.888;9.226;2023-01-01T10:40:18;159960.63;;;18.77;59.11
7940;BME280;4015;48.888;9.226;2023-01-01T10:42:48;159976.03;;;18.83;59.16
7940;BME280;4015;48.888;9.226;2023-01-01T10:45:16;160042.78;;;19.09;59.76
7940;BME280;4015;48.888;9.226;2023-01-01T10:48:08;160320.25;;;20.19;56.44
7940;BME280;4015;48.888;9.226;2023-01-01T10:53:18;160379.38;;;20.43;56.38
7940;BME280;4015;48.888;9.226;2023-01-01T10:55:49;160365.22;;;20.37;54.38
7940;BME280;4015;48.888;9.226;2023-01-01T11:01:12;160515.59;;;20.97;55.15
7940;BME280;4015;48.888;9.226;2023-01-01T11:03:58;160662.16;;;21.55;52.33
7940;BME280;4015;48.888;9.226;2023-01-01T11:06:30;160667.34;;;21.57;52.18
7940;BME280;4015;48.888;9.226;2023-01-01T11:08:58;160691.75;;;21.67;52.47
7940;BME280;4015;48.888;9.226;2023-01-01T11:11:28;160771.47;;;21.98;53.11
7940;BME280;4015;48.888;9.226;2023-01-01T11:13:58;160708.47;;;21.73;52.76
7940;BME280;4015;48.888;9.226;2023-01-01T11:16:26;160565.72;;;21.17;53.05
7940;BME280;4015;48.888;9.226;2023-01-01T11:18:59;160497.63;;;20.90;55.50
7940;BME280;4015;48.888;9.226;2023-01-01T11:21:26;160392.22;;;20.48;56.70
7940;BME280;4015;48.888;9.226;2023-01-01T11:24:09;160375.47;;;20.41;55.71
7940;BME280;4015;48.888;9.226;2023-01-01T11:26:34;160471.88;;;20.80;53.68
7940;BME280;4015;48.888;9.226;2023-01-01T11:31:29;160321.53;;;20.20;55.43
7940;BME280;4015;48.888;9.226;2023-01-01T11:33:58;160374.19;;;20.41;55.65
7940;BME280;4015;48.888;9.226;2023-01-01T11:36:31;160227.75;;;19.83;55.13
7940;BME280;4015;48.888;9.226;2023-01-01T11:42:00;160185.38;;;19.66;56.29
7940;BME280;4015;48.888;9.226;2023-01-01T11:44:41;160291.97;;;20.08;54.69
7940;BME280;4015;48.888;9.226;2023-01-01T11:47:22;160205.94;;;19.74;57.30
7940;BME280;4015;48.888;9.226;2023-01-01T11:49:54;160103.13;;;19.33;57.55
7940;BME280;4015;48.888;9.226;2023-01-01T11:52:28;160106.97;;;19.35;59.48
7940;BME280;4015;48.888;9.226;2023-01-01T12:00:46;159979.88;;;18.84;59.03
7940;BME280;4015;48.888;9.226;2023-01-01T12:06:01;159979.88;;;18.84;59.95
7940;BME280;4015;48.888;9.226;2023-01-01T12:08:37;159964.47;;;18.78;59.87
7940;BME280;4015;48.888;9.226;2023-01-01T12:13:56;159991.44;;;18.89;59.24
7940;BME280;4015;48.888;9.226;2023-01-01T12:16:54;159996.56;;;18.91;60.63
7940;BME280;4015;48.888;9.226;2023-01-01T12:19:30;160106.97;;;19.35;57.39
7940;BME280;4015;48.888;9.226;2023-01-01T12:21:59;160092.84;;;19.29;56.87
7940;BME280;4015;48.888;9.226;2023-01-01T12:24:31;160123.66;;;19.41;58.47
7940;BME280;4015;48.888;9.226;2023-01-01T12:30:02;160326.66;;;20.22;55.89
7940;BME280;4015;48.888;9.226;2023-01-01T12:46:55;160869.25;;;22.37;52.19
7940;BME280;4015;48.888;9.226;2023-01-01T12:52:34;160929.72;;;22.61;52.14
7940;BME280;4015;48.888;9.226;2023-01-01T12:55:41;160801.09;;;22.10;53.28
7940;BME280;4015;48.888;9.226;2023-01-01T13:00:36;160668.63;;;21.58;52.84
7940;BME280;4015;48.888;9.226;2023-01-01T13:03:05;160581.13;;;21.23;54.68
7940;BME280;4015;48.888;9.226;2023-01-01T13:05:38;160547.72;;;21.10;54.92
7940;BME280;4015;48.888;9.226;2023-01-01T13:08:05;160561.88;;;21.15;53.73
7940;BME280;4015;48.888;9.226;2023-01-01T13:10:39;160628.75;;;21.42;54.09
7940;BME280;4015;48.888;9.226;2023-01-01T13:13:09;160608.19;;;21.34;54.15
7940;BME280;4015;48.888;9.226;2023-01-01T13:18:07;160540.03;;;21.07;54.65
7940;BME280;4015;48.888;9.226;2023-01-01T13:20:44;160541.31;;;21.07;54.14
7940;BME280;4015;48.888;9.226;2023-01-01T13:39:54;160193.09;;;19.69;55.57
7940;BME280;4015;48.888;9.226;2023-01-01T13:42:42;160164.81;;;19.58;57.54
7940;BME280;4015;48.888;9.226;2023-01-01T13:45:14;160028.66;;;19.04;58.71
7940;BME280;4015;48.888;9.226;2023-01-01T13:58:45;160127.56;;;19.43;57.39
7940;BME280;4015;48.888;9.226;2023-01-01T14:04:00;159855.31;;;18.35;59.49
7940;BME280;4015;48.888;9.226;2023-01-01T14:06:41;159768.06;;;18.00;60.74
7940;BME280;4015;48.888;9.226;2023-01-01T14:09:13;159743.66;;;17.91;60.58
7940;BME280;4015;48.888;9.226;2023-01-01T14:11:39;159675.66;;;17.64;61.60
7940;BME280;4015;48.888;9.226;2023-01-01T14:16:50;159619.22;;;17.41;62.28
7940;BME280;4015;48.888;9.226;2023-01-01T14:19:16;159626.91;;;17.44;63.10
7940;BME280;4015;48.888;9.226;2023-01-01T14:21:42;159625.63;;;17.44;61.95
7940;BME280;4015;48.888;9.226;2023-01-01T14:24:12;159615.34;;;17.40;61.67
7940;BME280;4015;48.888;9.226;2023-01-01T14:26:39;159583.28;;;17.27;62.91
7940;BME280;4015;48.888;9.226;2023-01-01T14:29:06;159561.50;;;17.18;63.33
7940;BME280;4015;48.888;9.226;2023-01-01T14:31:35;159525.59;;;17.04;62.67
7940;BME280;4015;48.888;9.226;2023-01-01T14:34:26;159508.94;;;16.97;63.09
7940;BME280;4015;48.888;9.226;2023-01-01T14:36:55;159488.38;;;16.89;63.55
7940;BME280;4015;48.888;9.226;2023-01-01T14:39:29;159460.16;;;16.78;63.88
7940;BME280;4015;48.888;9.226;2023-01-01T14:41:57;159457.59;;;16.77;64.08
7940;BME280;4015;48.888;9.226;2023-01-01T14:44:33;159487.09;;;16.89;64.93
7940;BME280;4015;48.888;9.226;2023-01-01T14:47:00;159453.78;;;16.76;64.26
7940;BME280;4015;48.888;9.226;2023-01-01T14:49:29;159493.53;;;16.91;64.12
7940;BME280;4015;48.888;9.226;2023-01-01T14:52:00;159535.81;;;17.08;63.73
7940;BME280;4015;48.888;9.226;2023-01-01T14:54:32;159585.84;;;17.28;62.93
7940;BME280;4015;48.888;9.226;2023-01-01T14:57:00;159599.94;;;17.34;62.86
7940;BME280;4015;48.888;9.226;2023-01-01T14:59:28;159610.22;;;17.38;62.69
7940;BME280;4015;48.888;9.226;2023-01-01T15:02:15;159605.13;;;17.36;62.81
7940;BME280;4015;48.888;9.226;2023-01-01T15:04:41;159574.31;;;17.23;62.98
7940;BME280;4015;48.888;9.226;2023-01-01T15:07:27;159497.38;;;16.93;64.47
7940;BME280;4015;48.888;9.226;2023-01-01T15:09:55;159466.59;;;16.81;65.61
7940;BME280;4015;48.888;9.226;2023-01-01T15:12:21;159492.25;;;16.91;64.29
7940;BME280;4015;48.888;9.226;2023-01-01T15:14:49;159442.22;;;16.71;64.49
7940;BME280;4015;48.888;9.226;2023-01-01T15:17:17;159466.59;;;16.81;63.88
7940;BME280;4015;48.888;9.226;2023-01-01T15:19:45;159494.81;;;16.92;63.41
7940;BME280;4015;48.888;9.226;2023-01-01T15:22:18;159471.72;;;16.83;63.59